createdAt,value
2018-12-20T00:00:45.630Z,3.22
2018-12-20T00:05:48.436Z,3.24
2018-12-20T00:10:51.666Z,3.40
2018-12-20T00:15:54.519Z,3.43
2018-12-20T00:20:57.123Z,3.29
2018-12-20T00:25:59.999Z,3.38
2018-12-20T00:31:02.767Z,3.30
2018-12-20T00:36:05.618Z,3.38
2018-12-20T00:41:08.374Z,3.43
2018-12-20T00:46:11.329Z,3.32
2018-12-20T00:51:14.196Z,3.34
2018-12-20T00:56:16.880Z,3.38
2018-12-20T01:01:19.554Z,3.35
2018-12-20T01:06:22.977Z,3.32
2018-12-20T01:11:26.085Z,3.36
2018-12-20T01:16:28.893Z,3.28
2018-12-20T01:21:31.564Z,3.38
2018-12-20T01:26:34.430Z,3.34
2018-12-20T01:31:37.196Z,3.36
2018-12-20T01:36:39.882Z,3.34
2018-12-20T01:41:42.709Z,3.38
2018-12-20T01:46:45.659Z,3.36
2018-12-20T01:51:48.813Z,3.37
2018-12-20T01:56:51.583Z,3.41
2018-12-20T02:01:54.566Z,3.28
2018-12-20T02:06:57.339Z,3.35
2018-12-20T02:12:00.253Z,3.44
2018-12-20T02:17:02.963Z,3.31
2018-12-20T02:22:05.680Z,3.12
2018-12-20T02:27:09.130Z,3.25
2018-12-20T02:32:11.885Z,3.27
2018-12-20T02:37:14.753Z,3.14
2018-12-20T02:42:17.694Z,3.25
2018-12-20T02:47:22.710Z,3.22
2018-12-20T02:52:25.313Z,3.14
2018-12-20T02:57:28.394Z,3.14
2018-12-20T03:02:31.932Z,3.23
2018-12-20T03:07:34.652Z,3.10
2018-12-20T03:12:38.101Z,3.20
2018-12-20T03:17:40.809Z,3.18
2018-12-20T03:22:43.990Z,3.11
2018-12-20T03:27:46.804Z,3.06
2018-12-20T03:32:49.617Z,3.08
2018-12-20T03:37:52.360Z,2.78
2018-12-20T03:42:55.811Z,3.00
2018-12-20T03:47:58.700Z,3.16
2018-12-20T03:53:02.307Z,3.13
2018-12-20T03:58:04.979Z,3.01
2018-12-20T04:03:08.187Z,2.99
2018-12-20T04:08:11.087Z,2.88
2018-12-20T04:13:13.912Z,3.00
2018-12-20T04:18:17.979Z,2.99
2018-12-20T04:23:20.831Z,2.88
2018-12-20T04:28:23.549Z,2.58
2018-12-20T04:33:26.545Z,2.98
2018-12-20T04:38:29.219Z,2.78
2018-12-20T04:43:32.053Z,2.77
2018-12-20T04:48:35.337Z,2.73
2018-12-20T04:53:38.220Z,2.79
2018-12-20T04:58:40.875Z,2.75
2018-12-20T05:03:43.518Z,3.48
2018-12-20T05:08:46.185Z,3.38
2018-12-20T05:13:49.687Z,2.93
2018-12-20T05:18:52.745Z,2.78
2018-12-20T05:23:55.504Z,2.75
2018-12-20T05:28:58.303Z,2.75
2018-12-20T05:34:02.033Z,2.74
2018-12-20T05:39:07.112Z,2.76
2018-12-20T05:44:09.897Z,2.63
2018-12-20T05:49:12.814Z,2.66
2018-12-20T05:54:15.608Z,2.78
2018-12-20T05:59:18.860Z,2.69
2018-12-20T06:04:21.522Z,2.60
2018-12-20T06:09:24.279Z,2.77
2018-12-20T06:14:27.121Z,2.61
2018-12-20T06:19:29.962Z,2.64
2018-12-20T06:24:33.053Z,2.60
2018-12-20T06:29:35.714Z,2.66
2018-12-20T06:34:38.301Z,2.70
2018-12-20T06:39:41.445Z,2.54
2018-12-20T06:44:44.237Z,2.62
2018-12-20T06:49:47.578Z,2.70
2018-12-20T06:54:50.553Z,2.54
2018-12-20T06:59:53.354Z,2.59
2018-12-20T07:04:56.030Z,2.48
2018-12-20T07:09:58.599Z,2.59
2018-12-20T07:15:01.598Z,2.60
2018-12-20T07:20:05.531Z,2.61
2018-12-20T07:25:08.875Z,2.64
2018-12-20T07:30:13.085Z,2.70
2018-12-20T07:35:15.697Z,2.56
2018-12-20T07:40:18.407Z,2.58
2018-12-20T07:45:21.128Z,2.59
2018-12-20T07:50:23.808Z,2.72
2018-12-20T07:55:26.987Z,2.72
2018-12-20T08:00:31.488Z,2.71
2018-12-20T08:05:34.296Z,2.56
2018-12-20T08:15:36.944Z,2.79
2018-12-20T08:20:39.691Z,2.72
2018-12-20T08:25:42.402Z,2.71
2018-12-20T08:30:45.186Z,2.73
2018-12-20T08:35:47.868Z,2.85
2018-12-20T08:40:50.677Z,2.77
2018-12-20T08:45:53.348Z,2.88
2018-12-20T08:50:55.962Z,2.93
2018-12-20T08:55:58.560Z,2.92
2018-12-20T09:01:01.376Z,2.82
2018-12-20T09:06:04.173Z,2.96
2018-12-20T09:11:07.347Z,3.05
2018-12-20T09:16:10.013Z,2.95
2018-12-20T09:21:12.798Z,2.96
2018-12-20T09:26:15.976Z,2.92
2018-12-20T09:31:18.693Z,2.86
2018-12-20T09:36:21.336Z,2.96
2018-12-20T09:41:24.099Z,3.03
2018-12-20T09:46:27.472Z,3.14
2018-12-20T09:51:30.382Z,3.16
2018-12-20T09:56:33.192Z,3.15
2018-12-20T10:01:35.786Z,3.12
2018-12-20T10:06:38.465Z,3.20
2018-12-20T10:11:41.389Z,3.08
2018-12-20T10:16:44.129Z,3.24
2018-12-20T10:21:47.089Z,3.31
2018-12-20T10:26:50.015Z,3.32
2018-12-20T10:31:52.901Z,3.18
2018-12-20T10:36:55.484Z,3.35
2018-12-20T10:41:58.049Z,3.35
2018-12-20T10:47:02.615Z,3.36
2018-12-20T10:52:05.353Z,3.35
2018-12-20T10:57:07.968Z,3.44
2018-12-20T11:02:16.185Z,3.57
2018-12-20T11:07:24.358Z,3.52
2018-12-20T11:12:27.387Z,3.64
2018-12-20T11:17:37.127Z,3.66
2018-12-20T11:22:35.133Z,3.89
2018-12-20T11:27:37.702Z,3.86
2018-12-20T11:32:40.449Z,3.87
2018-12-20T11:37:43.047Z,4.03
2018-12-20T11:42:45.627Z,4.06
2018-12-20T11:47:49.087Z,3.94
2018-12-20T11:52:51.783Z,3.83
2018-12-20T11:57:54.371Z,3.98
2018-12-20T12:02:57.219Z,3.98
2018-12-20T12:07:59.836Z,4.05
2018-12-20T12:13:02.491Z,4.14
2018-12-20T12:18:05.122Z,4.27
2018-12-20T12:23:07.805Z,4.17
2018-12-20T12:28:10.603Z,4.18
2018-12-20T12:33:13.306Z,4.19
2018-12-20T12:38:15.888Z,4.22
2018-12-20T12:43:18.531Z,4.17
2018-12-20T12:48:21.167Z,4.15
2018-12-20T12:53:24.289Z,4.21
2018-12-20T12:58:26.916Z,4.20
2018-12-20T13:03:29.941Z,4.12
2018-12-20T13:08:32.523Z,4.09
2018-12-20T13:13:35.207Z,4.20
2018-12-20T13:18:37.878Z,4.15
2018-12-20T13:23:40.685Z,4.22
2018-12-20T13:28:43.483Z,4.26
2018-12-20T13:33:46.223Z,4.24
2018-12-20T13:38:48.934Z,4.30
2018-12-20T13:43:51.681Z,4.29
2018-12-20T13:48:55.220Z,4.33
2018-12-20T13:53:58.097Z,4.29
2018-12-20T13:59:03.512Z,4.27
2018-12-20T14:04:06.361Z,4.20
2018-12-20T14:09:09.097Z,4.24
2018-12-20T14:14:11.665Z,4.26
2018-12-20T14:19:14.462Z,4.28
2018-12-20T14:24:17.061Z,4.34
2018-12-20T14:29:19.643Z,4.08
2018-12-20T14:34:22.544Z,4.22
2018-12-20T14:39:25.331Z,4.13
2018-12-20T14:44:27.940Z,4.10
2018-12-20T14:49:30.493Z,4.05
2018-12-20T14:54:33.047Z,4.14
2018-12-20T14:59:36.455Z,4.26
2018-12-20T15:04:39.054Z,4.21
2018-12-20T15:09:41.588Z,4.11
2018-12-20T15:14:44.152Z,4.06
2018-12-20T15:19:46.799Z,4.00
2018-12-20T15:24:49.515Z,4.08
2018-12-20T15:29:52.527Z,4.12
2018-12-20T15:34:55.327Z,4.14
2018-12-20T15:39:58.078Z,4.11
2018-12-20T15:45:00.794Z,4.15
2018-12-20T15:50:04.789Z,4.11
2018-12-20T15:55:07.656Z,4.18
2018-12-20T16:00:10.269Z,4.25
2018-12-20T16:05:12.862Z,4.27
2018-12-20T16:10:15.594Z,4.25
2018-12-20T16:15:18.317Z,4.44
2018-12-20T16:20:21.573Z,4.28
2018-12-20T16:25:24.235Z,4.38
2018-12-20T16:30:26.942Z,4.40
2018-12-20T16:35:29.742Z,4.33
2018-12-20T16:40:32.357Z,4.48
2018-12-20T16:45:34.949Z,4.31
2018-12-20T16:50:37.524Z,4.36
2018-12-20T16:55:40.082Z,4.22
2018-12-20T17:00:42.663Z,4.37
2018-12-20T17:05:45.214Z,4.28
2018-12-20T17:10:47.849Z,4.33
2018-12-20T17:15:50.499Z,4.43
2018-12-20T17:20:53.822Z,4.39
2018-12-20T17:25:59.495Z,4.30
2018-12-20T17:31:02.240Z,4.73
2018-12-20T17:36:04.813Z,4.39
2018-12-20T17:41:07.686Z,4.35
2018-12-20T17:46:10.491Z,4.34
2018-12-20T17:51:13.092Z,4.30
2018-12-20T17:56:15.739Z,4.33
2018-12-20T18:01:18.447Z,4.26
2018-12-20T18:06:21.273Z,4.37
2018-12-20T18:11:23.847Z,4.47
2018-12-20T18:16:26.448Z,4.38
2018-12-20T18:21:29.160Z,4.40
2018-12-20T18:26:32.067Z,4.35
2018-12-20T18:31:34.785Z,4.33
2018-12-20T18:36:37.456Z,4.31
2018-12-20T18:41:40.101Z,4.40
2018-12-20T18:46:42.702Z,4.35
2018-12-20T18:51:45.268Z,4.48
2018-12-20T18:56:48.006Z,4.44
2018-12-20T19:01:50.645Z,4.37
2018-12-20T19:06:53.335Z,4.45
2018-12-20T19:11:55.883Z,4.65
2018-12-20T19:16:59.267Z,4.58
2018-12-20T19:22:02.122Z,4.74
2018-12-20T19:27:04.735Z,4.49
2018-12-20T19:32:08.037Z,4.62
2018-12-20T19:37:11.163Z,4.64
2018-12-20T19:42:14.348Z,4.66
2018-12-20T19:47:17.163Z,4.60
2018-12-20T19:52:19.887Z,4.70
2018-12-20T19:57:22.660Z,4.65
2018-12-20T20:02:25.353Z,4.73
2018-12-20T20:07:28.066Z,4.82
2018-12-20T20:12:31.201Z,4.90
2018-12-20T20:17:34.379Z,4.82
2018-12-20T20:22:37.383Z,4.84
2018-12-20T20:27:40.234Z,4.90
2018-12-20T20:32:42.984Z,4.99
2018-12-20T20:37:46.091Z,5.12
2018-12-20T20:42:48.994Z,5.08
2018-12-20T20:47:52.102Z,5.19
2018-12-20T20:52:54.798Z,5.33
2018-12-20T20:57:57.433Z,5.32
2018-12-20T21:03:00.381Z,5.33
2018-12-20T21:08:03.094Z,5.31
2018-12-20T21:13:05.701Z,5.39
2018-12-20T21:18:08.241Z,5.50
2018-12-20T21:23:10.780Z,5.59
2018-12-20T21:28:13.361Z,5.66
2018-12-20T21:33:15.916Z,5.64
2018-12-20T21:38:18.562Z,5.77
2018-12-20T21:43:21.152Z,5.75
2018-12-20T21:48:23.778Z,6.00
2018-12-20T21:53:26.473Z,6.05
2018-12-20T21:58:29.141Z,6.38
2018-12-20T22:03:31.751Z,5.93
2018-12-20T22:08:34.391Z,5.80
2018-12-20T22:13:37.023Z,5.77
2018-12-20T22:18:39.634Z,5.85
2018-12-20T22:23:42.313Z,5.67
2018-12-20T22:28:45.478Z,5.66
2018-12-20T22:33:48.433Z,5.98
2018-12-20T22:38:51.861Z,6.44
2018-12-20T22:43:54.673Z,6.50
2018-12-20T22:48:57.260Z,6.71
2018-12-20T22:54:01.134Z,6.79
2018-12-20T22:59:03.831Z,6.83
2018-12-20T23:04:06.715Z,6.89
2018-12-20T23:09:09.379Z,6.93
2018-12-20T23:14:12.176Z,6.98
2018-12-20T23:19:14.924Z,7.00
2018-12-20T23:24:17.522Z,6.85
2018-12-20T23:29:20.223Z,6.89
2018-12-20T23:34:23.178Z,7.02
2018-12-20T23:39:25.845Z,6.87
2018-12-20T23:44:28.546Z,6.89
2018-12-20T23:49:31.375Z,6.90
2018-12-20T23:54:33.921Z,6.87
2018-12-20T23:59:36.557Z,6.91
